sensor_id;sensor_type;location;lat;lon;timestamp;temperature;humidity
36352;DHT22;22382;44.768;17.206;2023-08-08T07:46:48;21.20;99.90
36352;DHT22;22382;44.768;17.206;2023-08-08T07:49:16;21.10;99.20
36352;DHT22;22382;44.768;17.206;2023-08-08T07:51:43;21.00;99.70
36352;DHT22;22382;44.768;17.206;2023-08-08T07:54:10;21.00;99.90
36352;DHT22;22382;44.768;17.206;2023-08-08T07:56:37;21.20;99.10
36352;DHT22;22382;44.768;17.206;2023-08-08T07:59:04;21.20;99.30
36352;DHT22;22382;44.768;17.206;2023-08-08T08:01:32;21.30;99.30
36352;DHT22;22382;44.768;17.206;2023-08-08T08:03:59;21.60;98.50
36352;DHT22;22382;44.768;17.206;2023-08-08T08:06:27;21.70;98.40
36352;DHT22;22382;44.768;17.206;2023-08-08T08:08:54;21.70;97.90
36352;DHT22;22382;44.768;17.206;2023-08-08T08:11:21;21.70;98.40
36352;DHT22;22382;44.768;17.206;2023-08-08T08:13:48;21.60;98.80
36352;DHT22;22382;44.768;17.206;2023-08-08T08:16:15;21.50;98.30
36352;DHT22;22382;44.768;17.206;2023-08-08T08:18:42;21.40;98.30
36352;DHT22;22382;44.768;17.206;2023-08-08T08:21:09;21.50;98.20
36352;DHT22;22382;44.768;17.206;2023-08-08T08:23:36;21.90;96.90
36352;DHT22;22382;44.768;17.206;2023-08-08T08:26:03;21.90;96.80
36352;DHT22;22382;44.768;17.206;2023-08-08T08:28:30;21.90;96.30
36352;DHT22;22382;44.768;17.206;2023-08-08T08:30:57;21.90;96.90
36352;DHT22;22382;44.768;17.206;2023-08-08T08:33:24;21.90;95.80
36352;DHT22;22382;44.768;17.206;2023-08-08T08:35:52;22.30;95.70
36352;DHT22;22382;44.768;17.206;2023-08-08T08:38:19;22.50;94.50
36352;DHT22;22382;44.768;17.206;2023-08-08T08:40:46;22.40;94.20
36352;DHT22;22382;44.768;17.206;2023-08-08T08:43:15;22.50;95.00
36352;DHT22;22382;44.768;17.206;2023-08-08T08:45:43;22.20;94.60
36352;DHT22;22382;44.768;17.206;2023-08-08T08:48:13;22.20;92.10
36352;DHT22;22382;44.768;17.206;2023-08-08T08:50:45;22.20;91.70
36352;DHT22;22382;44.768;17.206;2023-08-08T08:53:14;22.10;92.30
36352;DHT22;22382;44.768;17.206;2023-08-08T08:55:42;22.40;90.50
36352;DHT22;22382;44.768;17.206;2023-08-08T08:58:09;22.60;90.90
36352;DHT22;22382;44.768;17.206;2023-08-08T09:00:37;22.50;90.10
36352;DHT22;22382;44.768;17.206;2023-08-08T09:03:06;22.60;90.10
36352;DHT22;22382;44.768;17.206;2023-08-08T09:05:34;22.60;88.00
36352;DHT22;22382;44.768;17.206;2023-08-08T09:08:02;22.50;84.20
36352;DHT22;22382;44.768;17.206;2023-08-08T09:10:30;22.30;85.50
36352;DHT22;22382;44.768;17.206;2023-08-08T09:12:57;22.50;86.80
36352;DHT22;22382;44.768;17.206;2023-08-08T09:15:24;22.70;85.50
36352;DHT22;22382;44.768;17.206;2023-08-08T09:17:51;22.80;85.30
36352;DHT22;22382;44.768;17.206;2023-08-08T09:20:18;22.70;82.50
36352;DHT22;22382;44.768;17.206;2023-08-08T09:22:46;22.60;82.60
36352;DHT22;22382;44.768;17.206;2023-08-08T09:25:13;22.80;84.50
36352;DHT22;22382;44.768;17.206;2023-08-08T09:27:40;23.00;82.90
36352;DHT22;22382;44.768;17.206;2023-08-08T09:30:10;22.80;80.70
36352;DHT22;22382;44.768;17.206;2023-08-08T09:32:38;22.50;83.80
36352;DHT22;22382;44.768;17.206;2023-08-08T09:35:06;22.60;83.50
36352;DHT22;22382;44.768;17.206;2023-08-08T09:37:38;22.70;83.80
36352;DHT22;22382;44.768;17.206;2023-08-08T09:40:05;22.60;82.10
36352;DHT22;22382;44.768;17.206;2023-08-08T09:42:35;22.50;80.70
36352;DHT22;22382;44.768;17.206;2023-08-08T09:45:02;22.70;80.50
36352;DHT22;22382;44.768;17.206;2023-08-08T09:47:29;22.50;79.00
36352;DHT22;22382;44.768;17.206;2023-08-08T09:50:00;22.50;80.70
36352;DHT22;22382;44.768;17.206;2023-08-08T09:52:28;22.70;79.50
36352;DHT22;22382;44.768;17.206;2023-08-08T09:54:56;22.70;79.30
36352;DHT22;22382;44.768;17.206;2023-08-08T09:57:23;23.00;78.80
36352;DHT22;22382;44.768;17.206;2023-08-08T09:59:51;23.00;80.60
36352;DHT22;22382;44.768;17.206;2023-08-08T10:02:19;23.20;79.80
36352;DHT22;22382;44.768;17.206;2023-08-08T10:04:46;23.20;76.10
36352;DHT22;22382;44.768;17.206;2023-08-08T10:07:14;23.00;76.90
36352;DHT22;22382;44.768;17.206;2023-08-08T10:09:41;22.90;76.60
36352;DHT22;22382;44.768;17.206;2023-08-08T10:12:08;22.70;75.20
36352;DHT22;22382;44.768;17.206;2023-08-08T10:14:36;22.80;74.60
36352;DHT22;22382;44.768;17.206;2023-08-08T10:17:05;23.00;76.80
36352;DHT22;22382;44.768;17.206;2023-08-08T10:19:32;23.40;76.30
36352;DHT22;22382;44.768;17.206;2023-08-08T10:22:02;23.50;74.60
36352;DHT22;22382;44.768;17.206;2023-08-08T10:24:34;23.50;75.10
36352;DHT22;22382;44.768;17.206;2023-08-08T10:27:02;23.60;76.50
36352;DHT22;22382;44.768;17.206;2023-08-08T10:29:33;23.80;75.70
36352;DHT22;22382;44.768;17.206;2023-08-08T10:32:05;24.00;70.80
36352;DHT22;22382;44.768;17.206;2023-08-08T10:34:39;24.10;74.90
36352;DHT22;22382;44.768;17.206;2023-08-08T10:37:10;24.00;71.70
36352;DHT22;22382;44.768;17.206;2023-08-08T10:39:48;23.90;70.90
36352;DHT22;22382;44.768;17.206;2023-08-08T10:42:17;24.10;71.70
36352;DHT22;22382;44.768;17.206;2023-08-08T10:44:50;23.80;69.80
36352;DHT22;22382;44.768;17.206;2023-08-08T10:47:23;23.90;71.00
36352;DHT22;22382;44.768;17.206;2023-08-08T10:49:59;24.20;70.00
36352;DHT22;22382;44.768;17.206;2023-08-08T10:52:29;24.40;68.90
36352;DHT22;22382;44.768;17.206;2023-08-08T10:54:56;24.70;66.30
36352;DHT22;22382;44.768;17.206;2023-08-08T10:57:26;25.00;66.50
36352;DHT22;22382;44.768;17.206;2023-08-08T10:59:53;25.10;67.10
36352;DHT22;22382;44.768;17.206;2023-08-08T11:02:21;24.40;66.00
36352;DHT22;22382;44.768;17.206;2023-08-08T11:04:48;24.10;66.50
36352;DHT22;22382;44.768;17.206;2023-08-08T11:07:17;23.80;68.00
36352;DHT22;22382;44.768;17.206;2023-08-08T11:09:44;23.80;67.20
36352;DHT22;22382;44.768;17.206;2023-08-08T11:12:14;23.90;66.80
36352;DHT22;22382;44.768;17.206;2023-08-08T11:14:42;23.70;69.20
36352;DHT22;22382;44.768;17.206;2023-08-08T11:17:10;23.70;64.30
36352;DHT22;22382;44.768;17.206;2023-08-08T11:19:40;24.00;66.40
36352;DHT22;22382;44.768;17.206;2023-08-08T11:22:10;24.20;63.80
36352;DHT22;22382;44.768;17.206;2023-08-08T11:24:38;24.10;64.10
36352;DHT22;22382;44.768;17.206;2023-08-08T11:27:05;24.20;64.30
36352;DHT22;22382;44.768;17.206;2023-08-08T11:29:32;24.20;65.00
36352;DHT22;22382;44.768;17.206;2023-08-08T11:32:00;24.30;63.30
36352;DHT22;22382;44.768;17.206;2023-08-08T11:34:31;24.10;64.20
36352;DHT22;22382;44.768;17.206;2023-08-08T11:36:59;24.00;64.40
36352;DHT22;22382;44.768;17.206;2023-08-08T11:39:26;24.00;64.00
36352;DHT22;22382;44.768;17.206;2023-08-08T11:41:54;24.10;65.10
36352;DHT22;22382;44.768;17.206;2023-08-08T11:44:24;24.40;64.60
36352;DHT22;22382;44.768;17.206;2023-08-08T11:46:51;24.60;62.50
36352;DHT22;22382;44.768;17.206;2023-08-08T11:49:18;24.40;62.40
36352;DHT22;22382;44.768;17.206;2023-08-08T11:51:45;24.40;63.10
36352;DHT22;22382;44.768;17.206;2023-08-08T11:54:12;24.30;64.50
36352;DHT22;22382;44.768;17.206;2023-08-08T11:56:39;24.10;65.00
36352;DHT22;22382;44.768;17.206;2023-08-08T11:59:06;23.90;63.70
36352;DHT22;22382;44.768;17.206;2023-08-08T12:01:35;24.00;64.50
36352;DHT22;22382;44.768;17.206;2023-08-08T12:04:05;24.10;65.80
36352;DHT22;22382;44.768;17.206;2023-08-08T12:06:36;24.10;64.90
36352;DHT22;22382;44.768;17.206;2023-08-08T12:09:08;24.00;65.80
36352;DHT22;22382;44.768;17.206;2023-08-08T12:11:39;23.90;66.20
36352;DHT22;22382;44.768;17.206;2023-08-08T12:14:07;23.90;64.50
36352;DHT22;22382;44.768;17.206;2023-08-08T12:16:38;24.00;64.70
36352;DHT22;22382;44.768;17.206;2023-08-08T12:19:10;23.90;63.60
36352;DHT22;22382;44.768;17.206;2023-08-08T12:21:46;23.90;63.30
36352;DHT22;22382;44.768;17.206;2023-08-08T12:24:15;23.90;64.60
36352;DHT22;22382;44.768;17.206;2023-08-08T12:26:50;24.00;63.90
36352;DHT22;22382;44.768;17.206;2023-08-08T12:29:19;24.10;65.60
36352;DHT22;22382;44.768;17.206;2023-08-08T12:31:48;24.00;66.70
36352;DHT22;22382;44.768;17.206;2023-08-08T12:34:16;24.00;67.10
36352;DHT22;22382;44.768;17.206;2023-08-08T12:36:43;23.80;66.90
36352;DHT22;22382;44.768;17.206;2023-08-08T12:39:11;23.70;64.40
36352;DHT22;22382;44.768;17.206;2023-08-08T12:41:39;23.90;64.20
36352;DHT22;22382;44.768;17.206;2023-08-08T12:44:06;24.20;65.50
36352;DHT22;22382;44.768;17.206;2023-08-08T12:46:35;24.10;63.10
36352;DHT22;22382;44.768;17.206;2023-08-08T12:49:03;24.10;62.30
36352;DHT22;22382;44.768;17.206;2023-08-08T12:51:31;23.90;62.70
36352;DHT22;22382;44.768;17.206;2023-08-08T12:54:00;24.10;61.70
36352;DHT22;22382;44.768;17.206;2023-08-08T12:56:29;24.20;61.90
36352;DHT22;22382;44.768;17.206;2023-08-08T12:58:56;24.30;62.70
36352;DHT22;22382;44.768;17.206;2023-08-08T13:01:25;24.30;63.80
36352;DHT22;22382;44.768;17.206;2023-08-08T13:03:53;24.50;63.90
36352;DHT22;22382;44.768;17.206;2023-08-08T13:06:28;24.40;63.80
36352;DHT22;22382;44.768;17.206;2023-08-08T13:08:59;24.30;64.60
36352;DHT22;22382;44.768;17.206;2023-08-08T13:11:29;24.00;64.90
36352;DHT22;22382;44.768;17.206;2023-08-08T13:13:57;23.90;63.30
36352;DHT22;22382;44.768;17.206;2023-08-08T13:16:25;23.80;63.60
36352;DHT22;22382;44.768;17.206;2023-08-08T13:18:54;23.90;63.10
36352;DHT22;22382;44.768;17.206;2023-08-08T13:21:31;23.80;63.70
36352;DHT22;22382;44.768;17.206;2023-08-08T13:24:02;23.70;63.50
36352;DHT22;22382;44.768;17.206;2023-08-08T13:26:52;23.80;63.00
36352;DHT22;22382;44.768;17.206;2023-08-08T13:29:20;23.90;63.90
36352;DHT22;22382;44.768;17.206;2023-08-08T13:31:49;24.10;63.10
36352;DHT22;22382;44.768;17.206;2023-08-08T13:34:18;24.20;62.90
36352;DHT22;22382;44.768;17.206;2023-08-08T13:36:50;24.40;63.30
36352;DHT22;22382;44.768;17.206;2023-08-08T13:39:19;24.40;63.70
36352;DHT22;22382;44.768;17.206;2023-08-08T13:41:48;24.30;62.20
36352;DHT22;22382;44.768;17.206;2023-08-08T13:44:19;24.40;62.30
36352;DHT22;22382;44.768;17.206;2023-08-08T13:46:47;24.40;62.90
36352;DHT22;22382;44.768;17.206;2023-08-08T13:49:18;24.50;63.30
36352;DHT22;22382;44.768;17.206;2023-08-08T13:51:46;24.50;63.70
36352;DHT22;22382;44.768;17.206;2023-08-08T13:54:16;24.40;64.30
36352;DHT22;22382;44.768;17.206;2023-08-08T13:56:48;24.50;64.30
36352;DHT22;22382;44.768;17.206;2023-08-08T13:59:19;24.60;63.10
36352;DHT22;22382;44.768;17.206;2023-08-08T14:01:48;24.70;63.00
36352;DHT22;22382;44.768;17.206;2023-08-08T14:04:16;24.60;64.10
36352;DHT22;22382;44.768;17.206;2023-08-08T14:06:45;24.50;64.20
36352;DHT22;22382;44.768;17.206;2023-08-08T14:09:13;24.60;65.60
36352;DHT22;22382;44.768;17.206;2023-08-08T14:11:45;24.70;64.10
36352;DHT22;22382;44.768;17.206;2023-08-08T14:14:13;24.70;62.60
36352;DHT22;22382;44.768;17.206;2023-08-08T14:16:40;24.80;64.80
36352;DHT22;22382;44.768;17.206;2023-08-08T14:19:08;24.90;64.70
36352;DHT22;22382;44.768;17.206;2023-08-08T14:21:36;24.90;62.60
36352;DHT22;22382;44.768;17.206;2023-08-08T14:24:05;24.90;61.70
36352;DHT22;22382;44.768;17.206;2023-08-08T14:26:34;24.90;61.90
36352;DHT22;22382;44.768;17.206;2023-08-08T14:29:01;25.00;61.60
36352;DHT22;22382;44.768;17.206;2023-08-08T14:31:28;25.10;61.50
36352;DHT22;22382;44.768;17.206;2023-08-08T14:33:55;25.40;62.10
36352;DHT22;22382;44.768;17.206;2023-08-08T14:36:22;25.30;59.80
36352;DHT22;22382;44.768;17.206;2023-08-08T14:38:49;25.50;60.80
36352;DHT22;22382;44.768;17.206;2023-08-08T14:41:17;25.70;59.40
36352;DHT22;22382;44.768;17.206;2023-08-08T14:43:44;25.80;60.60
36352;DHT22;22382;44.768;17.206;2023-08-08T14:46:11;26.00;61.50
36352;DHT22;22382;44.768;17.206;2023-08-08T14:48:38;26.30;59.40
36352;DHT22;22382;44.768;17.206;2023-08-08T14:51:05;26.40;59.10
36352;DHT22;22382;44.768;17.206;2023-08-08T14:53:31;26.20;59.30
36352;DHT22;22382;44.768;17.206;2023-08-08T14:55:58;26.20;58.70
36352;DHT22;22382;44.768;17.206;2023-08-08T14:58:26;26.80;62.70
36352;DHT22;22382;44.768;17.206;2023-08-08T15:00:53;27.50;60.50
36352;DHT22;22382;44.768;17.206;2023-08-08T15:03:21;28.30;58.90
36352;DHT22;22382;44.768;17.206;2023-08-08T15:05:48;29.30;55.90
36352;DHT22;22382;44.768;17.206;2023-08-08T15:08:15;29.60;54.70
36352;DHT22;22382;44.768;17.206;2023-08-08T15:10:42;30.30;53.40
36352;DHT22;22382;44.768;17.206;2023-08-08T15:13:09;31.30;54.70
36352;DHT22;22382;44.768;17.206;2023-08-08T15:15:36;32.70;52.30
36352;DHT22;22382;44.768;17.206;2023-08-08T15:18:03;32.10;51.60
36352;DHT22;22382;44.768;17.206;2023-08-08T15:20:30;32.40;50.40
36352;DHT22;22382;44.768;17.206;2023-08-08T15:22:57;33.50;49.50
36352;DHT22;22382;44.768;17.206;2023-08-08T15:25:24;33.80;48.00
36352;DHT22;22382;44.768;17.206;2023-08-08T15:27:51;33.30;48.10
36352;DHT22;22382;44.768;17.206;2023-08-08T15:30:18;31.90;49.40
36352;DHT22;22382;44.768;17.206;2023-08-08T15:32:46;30.30;49.70
36352;DHT22;22382;44.768;17.206;2023-08-08T15:35:13;29.00;52.50
36352;DHT22;22382;44.768;17.206;2023-08-08T15:37:40;28.10;53.80
36352;DHT22;22382;44.768;17.206;2023-08-08T15:40:07;27.30;55.00
36352;DHT22;22382;44.768;17.206;2023-08-08T15:42:34;26.70;56.20
36352;DHT22;22382;44.768;17.206;2023-08-08T15:45:01;26.30;56.90
36352;DHT22;22382;44.768;17.206;2023-08-08T15:47:28;25.80;58.40
36352;DHT22;22382;44.768;17.206;2023-08-08T15:49:56;25.60;59.60
36352;DHT22;22382;44.768;17.206;2023-08-08T15:52:22;25.60;59.50
36352;DHT22;22382;44.768;17.206;2023-08-08T15:54:49;25.60;60.50
36352;DHT22;22382;44.768;17.206;2023-08-08T15:57:18;25.40;60.50
36352;DHT22;22382;44.768;17.206;2023-08-08T15:59:45;25.30;60.00
36352;DHT22;22382;44.768;17.206;2023-08-08T16:02:12;25.20;60.50
36352;DHT22;22382;44.768;17.206;2023-08-08T16:04:40;25.30;60.30
36352;DHT22;22382;44.768;17.206;2023-08-08T16:07:07;25.50;60.30
36352;DHT22;22382;44.768;17.206;2023-08-08T16:09:36;25.30;60.40
36352;DHT22;22382;44.768;17.206;2023-08-08T16:12:03;24.90;61.30
36352;DHT22;22382;44.768;17.206;2023-08-08T16:14:31;24.80;61.20
36352;DHT22;22382;44.768;17.206;2023-08-08T16:16:58;24.70;61.30
36352;DHT22;22382;44.768;17.206;2023-08-08T16:19:26;24.70;62.80
36352;DHT22;22382;44.768;17.206;2023-08-08T16:21:54;24.60;62.40
36352;DHT22;22382;44.768;17.206;2023-08-08T16:24:21;24.60;62.60
36352;DHT22;22382;44.768;17.206;2023-08-08T16:26:48;24.50;64.00
36352;DHT22;22382;44.768;17.206;2023-08-08T16:29:16;24.50;63.40
36352;DHT22;22382;44.768;17.206;2023-08-08T16:31:43;24.50;63.50
36352;DHT22;22382;44.768;17.206;2023-08-08T16:34:12;24.50;63.40
36352;DHT22;22382;44.768;17.206;2023-08-08T16:36:39;24.50;63.40
36352;DHT22;22382;44.768;17.206;2023-08-08T16:39:07;24.50;65.50
36352;DHT22;22382;44.768;17.206;2023-08-08T16:41:44;24.50;64.90
36352;DHT22;22382;44.768;17.206;2023-08-08T16:44:12;24.30;64.40
36352;DHT22;22382;44.768;17.206;2023-08-08T16:46:40;24.20;64.20
36352;DHT22;22382;44.768;17.206;2023-08-08T16:49:30;24.20;64.70
36352;DHT22;22382;44.768;17.206;2023-08-08T16:51:59;24.10;65.90
36352;DHT22;22382;44.768;17.206;2023-08-08T16:54:27;24.00;67.00
36352;DHT22;22382;44.768;17.206;2023-08-08T16:56:55;23.90;66.90
36352;DHT22;22382;44.768;17.206;2023-08-08T16:59:23;23.80;67.10
36352;DHT22;22382;44.768;17.206;2023-08-08T17:01:52;23.70;66.40
36352;DHT22;22382;44.768;17.206;2023-08-08T17:04:21;23.50;66.40
36352;DHT22;22382;44.768;17.206;2023-08-08T17:06:49;23.50;67.20
36352;DHT22;22382;44.768;17.206;2023-08-08T17:09:19;23.40;67.90
36352;DHT22;22382;44.768;17.206;2023-08-08T17:11:48;23.30;69.10
36352;DHT22;22382;44.768;17.206;2023-08-08T17:14:16;23.20;70.60
36352;DHT22;22382;44.768;17.206;2023-08-08T17:16:44;23.10;69.40
36352;DHT22;22382;44.768;17.206;2023-08-08T17:19:17;23.00;70.40
36352;DHT22;22382;44.768;17.206;2023-08-08T17:21:45;23.00;71.00
36352;DHT22;22382;44.768;17.206;2023-08-08T17:24:13;22.90;73.00
36352;DHT22;22382;44.768;17.206;2023-08-08T17:26:44;22.80;71.70
36352;DHT22;22382;44.768;17.206;2023-08-08T17:29:13;22.70;72.00
36352;DHT22;22382;44.768;17.206;2023-08-08T17:31:50;22.60;73.10
36352;DHT22;22382;44.768;17.206;2023-08-08T17:34:19;22.40;75.00
36352;DHT22;22382;44.768;17.206;2023-08-08T17:36:56;22.40;75.60
36352;DHT22;22382;44.768;17.206;2023-08-08T17:39:28;22.30;76.00
36352;DHT22;22382;44.768;17.206;2023-08-08T17:42:14;22.20;77.60
36352;DHT22;22382;44.768;17.206;2023-08-08T17:44:47;22.10;77.20
36352;DHT22;22382;44.768;17.206;2023-08-08T17:47:17;21.90;78.40
36352;DHT22;22382;44.768;17.206;2023-08-08T17:49:46;21.80;79.00
36352;DHT22;22382;44.768;17.206;2023-08-08T17:52:17;21.70;81.40
36352;DHT22;22382;44.768;17.206;2023-08-08T17:54:49;21.50;82.60
36352;DHT22;22382;44.768;17.206;2023-08-08T17:57:21;21.30;82.90
36352;DHT22;22382;44.768;17.206;2023-08-08T17:59:48;21.10;84.10
36352;DHT22;22382;44.768;17.206;2023-08-08T18:02:15;21.00;86.10
36352;DHT22;22382;44.768;17.206;2023-08-08T18:04:43;20.90;88.40
36352;DHT22;22382;44.768;17.206;2023-08-08T18:07:10;20.80;90.60
36352;DHT22;22382;44.768;17.206;2023-08-08T18:09:37;20.70;91.40
36352;DHT22;22382;44.768;17.206;2023-08-08T18:12:04;20.60;91.20
36352;DHT22;22382;44.768;17.206;2023-08-08T18:14:32;20.40;91.90
36352;DHT22;22382;44.768;17.206;2023-08-08T18:16:59;20.40;92.80
36352;DHT22;22382;44.768;17.206;2023-08-08T18:19:26;20.20;93.80
36352;DHT22;22382;44.768;17.206;2023-08-08T18:21:54;20.20;94.40
36352;DHT22;22382;44.768;17.206;2023-08-08T18:24:21;20.10;94.70
36352;DHT22;22382;44.768;17.206;2023-08-08T18:26:48;20.10;94.80
36352;DHT22;22382;44.768;17.206;2023-08-08T18:29:15;20.00;95.50
36352;DHT22;22382;44.768;17.206;2023-08-08T18:31:42;20.00;95.30
36352;DHT22;22382;44.768;17.206;2023-08-08T18:34:09;19.90;95.80
36352;DHT22;22382;44.768;17.206;2023-08-08T18:36:36;19.80;95.80
36352;DHT22;22382;44.768;17.206;2023-08-08T18:39:03;19.80;96.00
36352;DHT22;22382;44.768;17.206;2023-08-08T18:41:30;19.80;96.00
36352;DHT22;22382;44.768;17.206;2023-08-08T18:43:57;19.80;96.00
36352;DHT22;22382;44.768;17.206;2023-08-08T18:46:25;19.70;97.10
36352;DHT22;22382;44.768;17.206;2023-08-08T18:48:52;19.60;97.50
36352;DHT22;22382;44.768;17.206;2023-08-08T18:51:19;19.50;97.80
36352;DHT22;22382;44.768;17.206;2023-08-08T18:53:46;19.40;98.50
36352;DHT22;22382;44.768;17.206;2023-08-08T18:56:13;19.30;98.70
36352;DHT22;22382;44.768;17.206;2023-08-08T18:58:40;19.20;99.10
36352;DHT22;22382;44.768;17.206;2023-08-08T19:01:08;19.20;99.30
36352;DHT22;22382;44.768;17.206;2023-08-08T19:03:35;19.10;99.90
36352;DHT22;22382;44.768;17.206;2023-08-08T19:06:02;19.00;99.90
36352;DHT22;22382;44.768;17.206;2023-08-08T19:08:29;19.00;99.90
36352;DHT22;22382;44.768;17.206;2023-08-08T19:10:57;18.90;99.90
36352;DHT22;22382;44.768;17.206;2023-08-08T19:13:24;18.90;99.90
36352;DHT22;22382;44.768;17.206;2023-08-08T19:15:51;18.70;99.90
36352;DHT22;22382;44.768;17.206;2023-08-08T19:18:18;18.60;99.90
36352;DHT22;22382;44.768;17.206;2023-08-08T19:20:45;18.50;99.90
36352;DHT22;22382;44.768;17.206;2023-08-08T19:23:14;18.40;99.90
36352;DHT22;22382;44.768;17.206;2023-08-08T19:25:41;18.30;99.90
36352;DHT22;22382;44.768;17.206;2023-08-08T19:28:08;18.20;99.90
36352;DHT22;22382;44.768;17.206;2023-08-08T19:30:35;18.10;99.90
36352;DHT22;22382;44.768;17.206;2023-08-08T19:33:02;18.10;99.90
36352;DHT22;22382;44.768;17.206;2023-08-08T19:35:29;18.00;99.90
36352;DHT22;22382;44.768;17.206;2023-08-08T19:37:56;17.90;99.90
36352;DHT22;22382;44.768;17.206;2023-08-08T19:40:23;17.80;99.90
36352;DHT22;22382;44.768;17.206;2023-08-08T19:42:50;17.70;99.90
36352;DHT22;22382;44.768;17.206;2023-08-08T19:45:20;17.60;99.90
36352;DHT22;22382;44.768;17.206;2023-08-08T19:47:47;17.60;99.90
36352;DHT22;22382;44.768;17.206;2023-08-08T19:50:14;17.50;99.90
36352;DHT22;22382;44.768;17.206;2023-08-08T19:52:41;17.40;99.90
36352;DHT22;22382;44.768;17.206;2023-08-08T19:55:08;17.40;99.90
36352;DHT22;22382;44.768;17.206;2023-08-08T19:57:36;17.40;99.90
36352;DHT22;22382;44.768;17.206;2023-08-08T20:00:04;17.30;99.90
36352;DHT22;22382;44.768;17.206;2023-08-08T20:02:32;17.20;99.90
36352;DHT22;22382;44.768;17.206;2023-08-08T20:04:59;17.20;99.90
36352;DHT22;22382;44.768;17.206;2023-08-08T20:07:26;17.10;99.90
36352;DHT22;22382;44.768;17.206;2023-08-08T20:09:53;17.10;99.90
36352;DHT22;22382;44.768;17.206;2023-08-08T20:12:21;17.00;99.90
36352;DHT22;22382;44.768;17.206;2023-08-08T20:14:48;17.00;99.90
36352;DHT22;22382;44.768;17.206;2023-08-08T20:17:15;16.90;99.90
36352;DHT22;22382;44.768;17.206;2023-08-08T20:19:42;16.90;99.90
36352;DHT22;22382;44.768;17.206;2023-08-08T20:22:09;16.80;99.90
36352;DHT22;22382;44.768;17.206;2023-08-08T20:24:36;16.70;99.90
36352;DHT22;22382;44.768;17.206;2023-08-08T20:27:03;16.70;99.90
36352;DHT22;22382;44.768;17.206;2023-08-08T20:29:30;16.60;99.90
36352;DHT22;22382;44.768;17.206;2023-08-08T20:31:57;16.60;99.90
36352;DHT22;22382;44.768;17.206;2023-08-08T20:34:25;16.50;99.90
36352;DHT22;22382;44.768;17.206;2023-08-08T20:36:54;16.50;99.90
36352;DHT22;22382;44.768;17.206;2023-08-08T20:39:21;16.50;99.90
36352;DHT22;22382;44.768;17.206;2023-08-08T20:41:49;16.50;99.90
36352;DHT22;22382;44.768;17.206;2023-08-08T20:44:16;16.40;99.90
36352;DHT22;22382;44.768;17.206;2023-08-08T20:46:43;16.40;99.90
36352;DHT22;22382;44.768;17.206;2023-08-08T20:49:10;16.30;99.90
36352;DHT22;22382;44.768;17.206;2023-08-08T20:51:37;16.30;99.90
36352;DHT22;22382;44.768;17.206;2023-08-08T20:54:04;16.30;99.90
36352;DHT22;22382;44.768;17.206;2023-08-08T20:56:33;16.20;99.90
36352;DHT22;22382;44.768;17.206;2023-08-08T20:59:00;16.20;99.90
36352;DHT22;22382;44.768;17.206;2023-08-08T21:01:27;16.10;99.90
36352;DHT22;22382;44.768;17.206;2023-08-08T21:03:54;16.10;99.90
36352;DHT22;22382;44.768;17.206;2023-08-08T21:06:21;16.00;99.90
36352;DHT22;22382;44.768;17.206;2023-08-08T21:08:48;16.00;99.90
36352;DHT22;22382;44.768;17.206;2023-08-08T21:11:15;15.90;99.90
36352;DHT22;22382;44.768;17.206;2023-08-08T21:13:42;15.90;99.90
36352;DHT22;22382;44.768;17.206;2023-08-08T21:16:09;15.90;99.90
36352;DHT22;22382;44.768;17.206;2023-08-08T21:18:37;15.80;99.90
36352;DHT22;22382;44.768;17.206;2023-08-08T21:21:04;15.80;99.90
36352;DHT22;22382;44.768;17.206;2023-08-08T21:23:31;15.70;99.90
36352;DHT22;22382;44.768;17.206;2023-08-08T21:25:58;15.70;99.90
36352;DHT22;22382;44.768;17.206;2023-08-08T21:28:26;15.70;99.90
36352;DHT22;22382;44.768;17.206;2023-08-08T21:30:56;15.60;99.90
36352;DHT22;22382;44.768;17.206;2023-08-08T21:33:23;15.60;99.90
36352;DHT22;22382;44.768;17.206;2023-08-08T21:35:49;15.50;99.90
36352;DHT22;22382;44.768;17.206;2023-08-08T21:38:16;15.50;99.90
36352;DHT22;22382;44.768;17.206;2023-08-08T21:40:44;15.50;99.90
36352;DHT22;22382;44.768;17.206;2023-08-08T21:43:11;15.40;99.90
36352;DHT22;22382;44.768;17.206;2023-08-08T21:45:38;15.40;99.90
36352;DHT22;22382;44.768;17.206;2023-08-08T21:48:05;15.30;99.90
36352;DHT22;22382;44.768;17.206;2023-08-08T21:50:32;15.30;99.90
36352;DHT22;22382;44.768;17.206;2023-08-08T21:52:59;15.20;99.90
36352;DHT22;22382;44.768;17.206;2023-08-08T21:55:26;15.20;99.90
36352;DHT22;22382;44.768;17.206;2023-08-08T21:57:54;15.10;99.90
36352;DHT22;22382;44.768;17.206;2023-08-08T22:00:21;15.10;99.90
36352;DHT22;22382;44.768;17.206;2023-08-08T22:02:48;15.00;99.90
36352;DHT22;22382;44.768;17.206;2023-08-08T22:05:16;15.00;99.90
36352;DHT22;22382;44.768;17.206;2023-08-08T22:07:43;15.00;99.90
36352;DHT22;22382;44.768;17.206;2023-08-08T22:10:10;14.90;99.90
36352;DHT22;22382;44.768;17.206;2023-08-08T22:12:38;14.90;99.90
36352;DHT22;22382;44.768;17.206;2023-08-08T22:15:05;14.90;99.90
36352;DHT22;22382;44.768;17.206;2023-08-08T22:17:34;14.90;99.90
36352;DHT22;22382;44.768;17.206;2023-08-08T22:20:01;14.80;99.90
36352;DHT22;22382;44.768;17.206;2023-08-08T22:22:28;14.80;99.90
36352;DHT22;22382;44.768;17.206;2023-08-08T22:24:58;14.70;99.90
36352;DHT22;22382;44.768;17.206;2023-08-08T22:27:25;14.70;99.90
36352;DHT22;22382;44.768;17.206;2023-08-08T22:29:52;14.70;99.90
36352;DHT22;22382;44.768;17.206;2023-08-08T22:32:19;14.60;99.90
36352;DHT22;22382;44.768;17.206;2023-08-08T22:34:46;14.60;99.90
36352;DHT22;22382;44.768;17.206;2023-08-08T22:37:13;14.60;99.90
36352;DHT22;22382;44.768;17.206;2023-08-08T22:39:41;14.50;99.90
36352;DHT22;22382;44.768;17.206;2023-08-08T22:42:08;14.50;99.90
36352;DHT22;22382;44.768;17.206;2023-08-08T22:44:39;14.50;99.90
36352;DHT22;22382;44.768;17.206;2023-08-08T22:47:06;14.50;99.90
36352;DHT22;22382;44.768;17.206;2023-08-08T22:49:34;14.40;99.90
36352;DHT22;22382;44.768;17.206;2023-08-08T22:52:02;14.40;99.90
36352;DHT22;22382;44.768;17.206;2023-08-08T22:54:29;14.30;99.90
36352;DHT22;22382;44.768;17.206;2023-08-08T22:56:57;14.30;99.90
36352;DHT22;22382;44.768;17.206;2023-08-08T22:59:28;14.30;99.90
36352;DHT22;22382;44.768;17.206;2023-08-08T23:01:55;14.30;99.90
36352;DHT22;22382;44.768;17.206;2023-08-08T23:04:22;14.30;99.90
36352;DHT22;22382;44.768;17.206;2023-08-08T23:06:49;14.30;99.90